Time;durP1;ratioP1;P1;durP2;ratioP2;P2;SDS_P1;SDS_P2;PMS_P1;PMS_P2;Temp;Humidity;BMP_temperature;BMP_pressure;BME280_temperature;BME280_humidity;BME280_pressure;Samples;Min_cycle;Max_cycle;Signal;HPM_P1;HPM_P2
2023/04/04 00:02:02;;;;;;;3.80;2.70;;;8.30;46.30;;;;;;5001593;28;20674;-76
2023/04/04 00:04:28;;;;;;;4.63;3.25;;;8.30;46.40;;;;;;5024309;28;20029;-76
2023/04/04 00:06:54;;;;;;;4.60;2.60;;;8.30;46.40;;;;;;5020545;28;20060;-76
2023/04/04 00:09:20;;;;;;;4.65;3.30;;;8.30;46.40;;;;;;5014565;28;20402;-77
2023/04/04 00:11:46;;;;;;;4.22;2.55;;;8.30;46.50;;;;;;5010038;28;20125;-77
2023/04/04 00:14:12;;;;;;;4.47;3.17;;;8.30;46.60;;;;;;5022350;28;20164;-77
2023/04/04 00:16:39;;;;;;;3.53;2.45;;;8.20;46.40;;;;;;5011439;28;20026;-77
2023/04/04 00:19:05;;;;;;;4.53;2.45;;;8.20;46.50;;;;;;4997309;28;20037;-77
2023/04/04 00:21:31;;;;;;;3.72;2.83;;;8.20;46.60;;;;;;5020779;28;20442;-77
2023/04/04 00:23:57;;;;;;;4.55;2.80;;;8.30;46.80;;;;;;5022137;28;20505;-78
2023/04/04 00:26:25;;;;;;;3.35;2.60;;;8.20;46.60;;;;;;5022979;28;20483;-76
2023/04/04 00:28:51;;;;;;;3.15;2.33;;;8.20;46.60;;;;;;5013603;28;20065;-76
2023/04/04 00:31:18;;;;;;;3.20;2.13;;;8.20;46.60;;;;;;5010116;28;20105;-76
2023/04/04 00:33:44;;;;;;;4.88;2.72;;;8.20;46.60;;;;;;5022202;28;20033;-76
2023/04/04 00:36:10;;;;;;;2.95;2.33;;;8.20;46.70;;;;;;5010635;28;20554;-77
2023/04/04 00:38:36;;;;;;;3.58;2.35;;;8.20;46.70;;;;;;5022014;28;20135;-77
2023/04/04 00:41:02;;;;;;;2.45;2.22;;;8.20;46.70;;;;;;5016128;28;20030;-77
2023/04/04 00:43:28;;;;;;;5.15;2.60;;;8.20;46.70;;;;;;5016553;28;20581;-77
2023/04/04 00:45:55;;;;;;;4.45;2.78;;;8.20;46.80;;;;;;5011969;28;20075;-77
2023/04/04 00:48:23;;;;;;;4.47;2.40;;;8.20;46.80;;;;;;5014239;28;20050;-77
2023/04/04 00:50:51;;;;;;;3.75;2.10;;;8.20;46.90;;;;;;5012905;28;20026;-77
2023/04/04 00:53:17;;;;;;;3.55;2.88;;;8.10;46.70;;;;;;5009711;28;20034;-78
2023/04/04 00:55:43;;;;;;;4.68;2.05;;;8.10;46.80;;;;;;5012258;28;20273;-78
2023/04/04 00:58:10;;;;;;;3.55;2.38;;;8.10;46.80;;;;;;5012276;28;20108;-78
2023/04/04 01:00:36;;;;;;;5.25;2.58;;;8.10;46.80;;;;;;5011996;28;20029;-77
2023/04/04 01:03:04;;;;;;;2.15;1.80;;;8.10;46.90;;;;;;5017528;28;20128;-77
2023/04/04 01:05:31;;;;;;;2.95;2.08;;;8.10;46.90;;;;;;5014629;28;20524;-76
2023/04/04 01:07:57;;;;;;;4.75;2.38;;;8.10;47.00;;;;;;5016159;28;20481;-76
2023/04/04 01:10:23;;;;;;;5.55;2.10;;;8.00;46.90;;;;;;5007647;28;20550;-76
2023/04/04 01:12:49;;;;;;;4.28;2.28;;;8.00;47.00;;;;;;5020283;28;20033;-77
2023/04/04 01:15:16;;;;;;;4.57;2.50;;;8.00;47.00;;;;;;5016068;28;20029;-77
2023/04/04 01:17:44;;;;;;;4.65;3.47;;;7.90;46.80;;;;;;5024519;28;20069;-77
2023/04/04 01:20:14;;;;;;;3.05;2.28;;;7.90;46.90;;;;;;5012851;28;20046;-78
2023/04/04 01:22:49;;;;;;;3.00;2.25;;;7.90;47.00;;;;;;5022997;28;20613;-77
2023/04/04 01:25:17;;;;;;;4.70;2.45;;;7.80;46.80;;;;;;5018902;28;20760;-77
2023/04/04 01:27:47;;;;;;;3.83;2.42;;;7.80;46.90;;;;;;5020397;28;20304;-76
2023/04/04 01:30:17;;;;;;;4.25;2.22;;;7.70;46.70;;;;;;5017556;28;20811;-77
2023/04/04 01:32:51;;;;;;;6.15;2.78;;;7.70;46.80;;;;;;5022122;28;20056;-77
2023/04/04 01:35:49;;;;;;;5.70;2.53;;;7.70;46.90;;;;;;5013966;28;20354;-78
2023/04/04 01:38:35;;;;;;;3.75;2.60;;;7.60;46.90;;;;;;5012050;28;20033;-77
2023/04/04 01:41:05;;;;;;;3.83;2.20;;;7.60;46.90;;;;;;5019677;28;20140;-78
2023/04/04 01:43:33;;;;;;;6.93;2.60;;;7.60;46.90;;;;;;5012675;28;20188;-76
2023/04/04 01:46:01;;;;;;;3.90;2.72;;;7.60;46.90;;;;;;5015372;28;20501;-77
2023/04/04 01:48:28;;;;;;;3.22;2.15;;;7.60;47.00;;;;;;4998610;28;20184;-77
2023/04/04 01:50:58;;;;;;;5.10;2.65;;;7.50;46.90;;;;;;5003896;28;20464;-78
2023/04/04 01:53:27;;;;;;;5.32;2.70;;;7.50;46.90;;;;;;5007153;28;20057;-76
2023/04/04 01:55:54;;;;;;;5.13;2.70;;;7.50;47.00;;;;;;5001258;28;20021;-76
2023/04/04 01:58:21;;;;;;;5.10;2.10;;;7.50;47.00;;;;;;5005936;28;20041;-77
2023/04/04 02:00:47;;;;;;;5.15;2.42;;;7.40;46.80;;;;;;5012359;28;20037;-76
2023/04/04 02:03:13;;;;;;;4.30;2.15;;;7.40;46.90;;;;;;5004445;28;20054;-77
2023/04/04 02:05:39;;;;;;;3.40;2.72;;;7.30;46.80;;;;;;5015198;28;20445;-77
2023/04/04 02:08:06;;;;;;;5.13;2.65;;;7.30;46.80;;;;;;4990186;28;20123;-77
2023/04/04 02:10:40;;;;;;;3.85;2.30;;;7.30;46.90;;;;;;4991124;28;20030;-77
2023/04/04 02:13:07;;;;;;;4.00;2.20;;;7.20;46.80;;;;;;5023223;28;20024;-79
2023/04/04 02:15:33;;;;;;;4.72;2.53;;;7.20;46.80;;;;;;5024278;28;20366;-77
2023/04/04 02:17:59;;;;;;;5.25;2.33;;;7.20;46.90;;;;;;5008272;28;20032;-78
2023/04/04 02:20:25;;;;;;;4.22;2.53;;;7.10;46.80;;;;;;5001938;28;20048;-78
2023/04/04 02:22:53;;;;;;;6.80;3.22;;;7.10;46.80;;;;;;5023105;28;20124;-77
2023/04/04 02:25:20;;;;;;;4.30;2.70;;;7.10;46.90;;;;;;4999740;28;20508;-78
2023/04/04 02:27:46;;;;;;;3.00;2.60;;;7.00;46.70;;;;;;5012481;28;20029;-77
2023/04/04 02:30:12;;;;;;;3.83;2.38;;;7.00;46.80;;;;;;5017224;28;20033;-77
2023/04/04 02:32:38;;;;;;;4.75;2.45;;;7.00;46.90;;;;;;5000982;28;20030;-77
2023/04/04 02:35:07;;;;;;;6.13;3.00;;;7.00;46.90;;;;;;5002015;28;20033;-77
2023/04/04 02:37:35;;;;;;;4.38;2.50;;;6.90;46.70;;;;;;5013050;28;20040;-77
2023/04/04 02:40:06;;;;;;;3.90;2.85;;;6.90;46.80;;;;;;5018682;28;20025;-78
2023/04/04 02:42:36;;;;;;;5.22;2.63;;;6.80;46.70;;;;;;5004705;28;20053;-78
2023/04/04 02:45:02;;;;;;;4.80;2.58;;;6.80;46.70;;;;;;5018773;28;20026;-79
2023/04/04 02:47:28;;;;;;;3.72;2.40;;;6.80;46.70;;;;;;5012462;28;20287;-77
2023/04/04 02:49:56;;;;;;;8.02;3.20;;;6.80;46.80;;;;;;5022506;28;20052;-77
2023/04/04 02:52:24;;;;;;;6.35;3.05;;;6.70;46.70;;;;;;5022538;28;20124;-77
2023/04/04 02:54:51;;;;;;;4.75;2.60;;;6.70;46.70;;;;;;5002204;28;20037;-77
2023/04/04 02:57:28;;;;;;;5.90;2.60;;;6.60;46.60;;;;;;5021609;28;20056;-77
2023/04/04 02:59:54;;;;;;;3.38;2.47;;;6.60;46.60;;;;;;5019342;28;20042;-77
2023/04/04 03:02:19;;;;;;;5.82;3.03;;;6.60;46.70;;;;;;5022269;28;20088;-75
2023/04/04 03:04:46;;;;;;;3.20;2.47;;;6.60;46.70;;;;;;5022989;28;20041;-76
2023/04/04 03:07:12;;;;;;;4.32;2.80;;;6.50;46.60;;;;;;5004769;28;20436;-75
2023/04/04 03:09:43;;;;;;;5.38;2.60;;;6.50;46.70;;;;;;5021717;28;20033;-75
2023/04/04 03:12:11;;;;;;;4.10;2.83;;;6.40;46.60;;;;;;5007975;28;20038;-75
2023/04/04 03:14:37;;;;;;;5.45;3.15;;;6.40;46.60;;;;;;5024143;28;20111;-76
2023/04/04 03:17:04;;;;;;;4.78;2.67;;;6.30;46.50;;;;;;5026199;28;20026;-76
2023/04/04 03:19:30;;;;;;;4.25;2.90;;;6.30;46.60;;;;;;5024740;28;20117;-76
2023/04/04 03:21:56;;;;;;;5.55;3.30;;;6.30;46.60;;;;;;5028360;28;20109;-75
2023/04/04 03:24:22;;;;;;;5.25;2.58;;;6.20;46.50;;;;;;5019293;28;20091;-76
2023/04/04 03:26:51;;;;;;;4.55;2.78;;;6.20;46.60;;;;;;5020313;28;20110;-74
2023/04/04 03:29:17;;;;;;;6.05;2.75;;;6.10;46.50;;;;;;5024348;28;20407;-75
2023/04/04 03:31:43;;;;;;;6.68;3.38;;;6.10;46.50;;;;;;5025417;28;20260;-75
2023/04/04 03:34:10;;;;;;;4.25;2.53;;;6.10;46.60;;;;;;5026197;28;20028;-75
2023/04/04 03:36:36;;;;;;;6.82;3.42;;;6.10;46.60;;;;;;5014855;28;20041;-76
2023/04/04 03:39:02;;;;;;;7.53;3.35;;;6.00;46.50;;;;;;5024382;28;20037;-75
2023/04/04 03:41:28;;;;;;;3.45;2.63;;;6.00;46.50;;;;;;5020057;28;20477;-75
2023/04/04 03:43:54;;;;;;;6.25;2.22;;;6.00;46.50;;;;;;5024899;28;20041;-76
2023/04/04 03:46:20;;;;;;;3.60;2.20;;;5.90;46.40;;;;;;5026136;28;20170;-75
2023/04/04 03:48:47;;;;;;;4.57;2.58;;;5.90;46.50;;;;;;5022508;28;20430;-75
2023/04/04 03:51:13;;;;;;;4.38;2.40;;;5.90;46.50;;;;;;4988280;28;20056;-75
2023/04/04 03:53:39;;;;;;;4.40;2.40;;;5.80;46.30;;;;;;5006320;28;20334;-75
2023/04/04 03:56:05;;;;;;;5.47;2.63;;;5.80;46.40;;;;;;5008259;28;20037;-75
2023/04/04 03:58:34;;;;;;;5.63;2.70;;;5.70;46.30;;;;;;5012855;28;20038;-75
2023/04/04 04:01:00;;;;;;;4.38;2.70;;;5.70;46.40;;;;;;5027093;28;20026;-76
2023/04/04 04:03:28;;;;;;;3.40;2.33;;;5.70;46.40;;;;;;5008466;28;20287;-75
2023/04/04 04:05:55;;;;;;;5.32;2.60;;;5.60;46.80;;;;;;5027381;28;20029;-75
2023/04/04 04:08:21;;;;;;;5.55;2.63;;;5.60;46.30;;;;;;5024525;28;20451;-75
2023/04/04 04:10:46;;;;;;;6.25;2.80;;;5.60;46.40;;;;;;5025159;28;20025;-76
2023/04/04 04:13:12;;;;;;;3.05;2.33;;;5.50;46.20;;;;;;5026484;28;20038;-76
2023/04/04 04:15:38;;;;;;;5.47;3.05;;;5.50;46.30;;;;;;5007338;28;20104;-77
2023/04/04 04:18:08;;;;;;;3.72;2.45;;;5.50;46.30;;;;;;5002685;28;20025;-77
2023/04/04 04:20:35;;;;;;;4.03;2.92;;;5.50;46.30;;;;;;5003270;28;20029;-77
2023/04/04 04:23:01;;;;;;;3.42;2.72;;;5.50;46.40;;;;;;5021726;28;20501;-78
2023/04/04 04:25:27;;;;;;;6.43;2.92;;;5.40;46.30;;;;;;5013307;28;20145;-76
2023/04/04 04:28:08;;;;;;;4.57;2.72;;;5.40;46.30;;;;;;5002209;28;20101;-76
2023/04/04 04:30:35;;;;;;;5.70;2.47;;;5.30;46.20;;;;;;5009012;28;20079;-77
2023/04/04 04:33:02;;;;;;;4.78;2.67;;;5.30;46.20;;;;;;5006608;28;20068;-77
2023/04/04 04:35:38;;;;;;;4.60;2.75;;;5.30;46.30;;;;;;5009611;28;20515;-77
2023/04/04 04:38:05;;;;;;;4.70;2.92;;;5.20;46.10;;;;;;5026019;28;20033;-77
2023/04/04 04:40:35;;;;;;;4.10;2.80;;;5.20;46.20;;;;;;5005421;28;20113;-76
2023/04/04 04:43:07;;;;;;;4.65;2.78;;;5.20;46.30;;;;;;5006659;28;20098;-76
2023/04/04 04:45:33;;;;;;;4.70;3.05;;;5.10;46.10;;;;;;5019635;28;20392;-76
2023/04/04 04:48:07;;;;;;;6.32;3.47;;;5.10;46.20;;;;;;5016378;28;20150;-75
2023/04/04 04:50:41;;;;;;;7.50;3.13;;;5.10;46.30;;;;;;4990877;28;20691;-76
2023/04/04 04:53:09;;;;;;;7.00;3.40;;;5.00;46.10;;;;;;5017402;28;20033;-80
2023/04/04 04:55:35;;;;;;;6.13;2.92;;;5.00;46.20;;;;;;5020466;28;20538;-77
2023/04/04 04:58:09;;;;;;;7.68;3.10;;;5.00;46.20;;;;;;5009547;28;20625;-77
2023/04/04 05:00:36;;;;;;;7.22;3.25;;;4.90;46.10;;;;;;5013971;28;20042;-77
2023/04/04 05:03:05;;;;;;;5.63;3.08;;;4.90;46.20;;;;;;5016219;28;20030;-76
2023/04/04 05:05:37;;;;;;;4.78;2.92;;;4.90;46.20;;;;;;5019450;28;20049;-78
2023/04/04 05:08:07;;;;;;;6.75;2.97;;;4.80;46.10;;;;;;5015358;28;20021;-78
2023/04/04 05:10:37;;;;;;;4.22;3.00;;;4.80;46.20;;;;;;5012325;28;20647;-78
2023/04/04 05:13:04;;;;;;;6.47;3.30;;;4.70;46.10;;;;;;5013483;28;20025;-78
2023/04/04 05:15:38;;;;;;;6.75;3.65;;;4.70;46.20;;;;;;5018373;28;20034;-77
2023/04/04 05:18:04;;;;;;;4.78;3.08;;;4.70;46.20;;;;;;5013287;28;20097;-77
2023/04/04 05:20:30;;;;;;;5.03;3.38;;;4.70;46.20;;;;;;5011100;28;20029;-76
2023/04/04 05:22:59;;;;;;;5.45;3.58;;;4.70;46.30;;;;;;5034841;28;20037;-77
2023/04/04 05:25:32;;;;;;;5.15;2.85;;;4.60;46.10;;;;;;4997486;28;20033;-76
2023/04/04 05:28:00;;;;;;;5.45;3.42;;;4.60;46.20;;;;;;5005129;28;20564;-76
2023/04/04 05:30:26;;;;;;;4.57;3.63;;;4.60;46.20;;;;;;5015762;28;20030;-76
2023/04/04 05:33:05;;;;;;;4.72;2.92;;;4.60;46.20;;;;;;5016077;28;20304;-77
2023/04/04 05:35:31;;;;;;;5.68;3.67;;;4.60;46.30;;;;;;5015443;28;20048;-79
2023/04/04 05:37:58;;;;;;;5.82;3.25;;;4.50;46.10;;;;;;5009834;28;20653;-77
2023/04/04 05:40:24;;;;;;;5.57;3.70;;;4.50;46.10;;;;;;4996799;28;20025;-79
2023/04/04 05:43:03;;;;;;;4.45;2.95;;;4.50;46.20;;;;;;5015385;28;20061;-79
2023/04/04 05:45:34;;;;;;;6.00;3.80;;;4.50;46.20;;;;;;4999939;28;20436;-80
2023/04/04 05:48:00;;;;;;;7.70;4.13;;;4.40;46.10;;;;;;5011762;28;20172;-78
2023/04/04 05:50:30;;;;;;;6.32;3.40;;;4.50;46.30;;;;;;5015334;28;20515;-77
2023/04/04 05:53:01;;;;;;;5.72;4.38;;;4.40;46.10;;;;;;5014755;28;20435;-76
2023/04/04 05:55:28;;;;;;;4.93;3.55;;;4.40;46.10;;;;;;5004342;28;20390;-75
2023/04/04 05:57:58;;;;;;;7.50;4.63;;;4.40;46.20;;;;;;5014031;28;20033;-80
2023/04/04 06:00:38;;;;;;;6.95;4.80;;;4.50;46.90;;;;;;5017106;28;20191;-81
2023/04/04 06:03:07;;;;;;;8.70;4.65;;;4.60;47.30;;;;;;4998531;28;20041;-80
2023/04/04 06:05:33;;;;;;;9.25;4.95;;;4.70;47.60;;;;;;5015686;28;20036;-76
2023/04/04 06:07:59;;;;;;;6.82;4.00;;;4.80;47.90;;;;;;5021730;28;20030;-79
2023/04/04 06:10:26;;;;;;;10.80;6.15;;;4.90;48.20;;;;;;5011258;28;20057;-81
2023/04/04 06:12:54;;;;;;;10.63;5.47;;;5.00;48.60;;;;;;5015917;28;20178;-82
2023/04/04 06:15:21;;;;;;;8.68;5.30;;;5.20;49.20;;;;;;5000185;28;20522;-78
2023/04/04 06:17:47;;;;;;;9.35;5.70;;;5.40;49.80;;;;;;5016042;28;20120;-78
2023/04/04 06:20:13;;;;;;;9.15;6.18;;;5.70;50.80;;;;;;5016798;28;20792;-82
2023/04/04 06:22:40;;;;;;;11.35;6.45;;;6.10;51.80;;;;;;5013579;28;20041;-78
2023/04/04 06:25:09;;;;;;;9.43;5.30;;;6.50;52.30;;;;;;5010026;28;20029;-82
2023/04/04 06:27:36;;;;;;;9.38;5.10;;;7.00;52.80;;;;;;5010245;28;20033;-81
2023/04/04 06:30:05;;;;;;;7.60;4.57;;;7.50;53.30;;;;;;5012130;28;20953;-81
2023/04/04 06:32:32;;;;;;;9.02;5.05;;;8.00;53.60;;;;;;5010095;28;20037;-79
2023/04/04 06:34:59;;;;;;;10.70;6.10;;;8.30;53.50;;;;;;5017845;28;20517;-78
2023/04/04 06:37:38;;;;;;;7.45;4.88;;;8.50;53.40;;;;;;5014611;28;20254;-78
2023/04/04 06:40:14;;;;;;;7.80;4.82;;;8.80;53.50;;;;;;5011587;28;20035;-78
2023/04/04 06:42:52;;;;;;;8.57;5.20;;;9.00;53.40;;;;;;5017361;28;20029;-78
2023/04/04 06:45:20;;;;;;;8.70;5.65;;;9.10;53.30;;;;;;5028620;28;20045;-77
2023/04/04 06:47:48;;;;;;;9.57;5.65;;;9.30;53.30;;;;;;5015270;28;20045;-79
2023/04/04 06:50:15;;;;;;;8.05;5.90;;;9.40;53.10;;;;;;5013891;28;20373;-75
2023/04/04 06:52:43;;;;;;;10.70;5.35;;;9.60;53.00;;;;;;5012179;28;20141;-78
2023/04/04 06:55:09;;;;;;;7.05;5.80;;;9.80;53.00;;;;;;5006875;28;20536;-77
2023/04/04 06:57:37;;;;;;;10.35;6.05;;;9.90;52.70;;;;;;5024438;28;20377;-77
2023/04/04 07:00:04;;;;;;;6.70;5.40;;;10.00;52.40;;;;;;5027250;28;20083;-78
2023/04/04 07:02:30;;;;;;;8.15;5.53;;;10.10;52.10;;;;;;5021823;28;20244;-78
2023/04/04 07:04:56;;;;;;;9.00;5.53;;;10.00;51.60;;;;;;5026910;28;20036;-79
2023/04/04 07:07:22;;;;;;;11.35;5.40;;;10.10;51.70;;;;;;5036662;28;20037;-78
2023/04/04 07:09:48;;;;;;;11.82;5.60;;;10.20;51.90;;;;;;5030610;28;20033;-79
2023/04/04 07:12:14;;;;;;;8.18;5.72;;;10.20;51.70;;;;;;5033325;28;20581;-78
2023/04/04 07:14:40;;;;;;;9.45;5.60;;;10.20;51.40;;;;;;5019605;28;20189;-78
2023/04/04 07:17:06;;;;;;;8.18;5.63;;;10.20;51.20;;;;;;5022803;28;20133;-76
2023/04/04 07:19:32;;;;;;;9.52;6.53;;;10.00;50.70;;;;;;5009069;28;20399;-78
2023/04/04 07:21:58;;;;;;;9.93;5.55;;;10.00;50.60;;;;;;5017540;28;20030;-78
2023/04/04 07:24:23;;;;;;;6.95;5.47;;;9.90;50.40;;;;;;5012032;28;20378;-78
2023/04/04 07:26:49;;;;;;;7.70;6.03;;;9.80;50.20;;;;;;5025911;28;20104;-77
2023/04/04 07:29:15;;;;;;;7.82;5.30;;;9.70;50.00;;;;;;5010913;28;20377;-77
2023/04/04 07:31:41;;;;;;;8.98;6.03;;;9.50;49.60;;;;;;5014676;28;20246;-77
2023/04/04 07:34:07;;;;;;;8.30;5.70;;;9.50;49.60;;;;;;5014167;28;20597;-78
2023/04/04 07:36:33;;;;;;;8.50;5.85;;;9.40;49.50;;;;;;5018810;28;20533;-78
2023/04/04 07:38:59;;;;;;;6.97;5.80;;;9.40;49.50;;;;;;5017281;28;20064;-79
2023/04/04 07:41:25;;;;;;;10.30;6.32;;;9.30;49.30;;;;;;5001452;28;20090;-78
2023/04/04 07:43:51;;;;;;;10.13;5.40;;;9.20;49.10;;;;;;5011087;28;20041;-79
2023/04/04 07:46:17;;;;;;;9.88;5.38;;;9.20;49.20;;;;;;5022121;28;20350;-81
2023/04/04 07:48:43;;;;;;;10.88;5.55;;;9.20;49.20;;;;;;5011789;28;20499;-80
2023/04/04 07:51:09;;;;;;;8.45;6.18;;;9.20;49.20;;;;;;4993224;28;20370;-81
2023/04/04 07:53:35;;;;;;;9.02;5.85;;;9.20;49.30;;;;;;5001163;28;20170;-78
2023/04/04 07:56:05;;;;;;;8.32;6.07;;;9.30;49.40;;;;;;4998450;28;20125;-78
2023/04/04 07:58:35;;;;;;;11.50;6.20;;;9.50;49.50;;;;;;5012897;28;20517;-78
2023/04/04 08:01:02;;;;;;;11.40;7.05;;;9.50;49.00;;;;;;5014545;28;20109;-77
2023/04/04 08:03:29;;;;;;;8.65;6.03;;;9.60;48.90;;;;;;5008932;28;20037;-77
2023/04/04 08:05:55;;;;;;;7.85;5.45;;;9.70;48.80;;;;;;4997870;28;20033;-77
2023/04/04 08:08:21;;;;;;;7.88;6.47;;;9.70;48.60;;;;;;5012097;28;20060;-79
2023/04/04 08:10:48;;;;;;;8.43;5.85;;;9.60;48.30;;;;;;4993835;28;20117;-78
2023/04/04 08:13:14;;;;;;;11.02;6.05;;;9.60;48.10;;;;;;4998052;28;20448;-78
2023/04/04 08:15:40;;;;;;;8.80;5.63;;;9.60;48.10;;;;;;4999986;28;20037;-78
2023/04/04 08:18:07;;;;;;;8.23;5.60;;;9.50;47.80;;;;;;5009858;28;20059;-78
2023/04/04 08:20:33;;;;;;;9.27;6.35;;;9.50;47.80;;;;;;5010937;28;20775;-77
2023/04/04 08:23:00;;;;;;;7.20;6.50;;;9.50;47.80;;;;;;4992136;28;20022;-77
2023/04/04 08:25:26;;;;;;;8.75;6.30;;;9.50;47.90;;;;;;4996379;28;20113;-79
2023/04/04 08:27:52;;;;;;;9.05;5.22;;;9.50;48.10;;;;;;4992791;28;20057;-79
2023/04/04 08:30:18;;;;;;;9.93;6.00;;;9.50;48.30;;;;;;4994783;28;20030;-78
2023/04/04 08:32:44;;;;;;;9.27;5.75;;;9.60;48.60;;;;;;5012824;28;20500;-77
2023/04/04 08:35:13;;;;;;;8.20;5.47;;;9.70;48.90;;;;;;5007803;28;20465;-77
2023/04/04 08:37:45;;;;;;;8.40;6.30;;;9.70;49.10;;;;;;5017264;28;20033;-77
2023/04/04 08:40:12;;;;;;;4.90;4.25;;;9.80;49.30;;;;;;4994087;28;20033;-77
2023/04/04 08:42:40;;;;;;;7.78;5.63;;;9.80;49.40;;;;;;4994533;28;20033;-77
2023/04/04 08:45:10;;;;;;;6.90;5.50;;;9.90;49.60;;;;;;5006632;28;20069;-77
2023/04/04 08:47:37;;;;;;;9.82;5.40;;;9.90;49.70;;;;;;5008573;28;20200;-81
2023/04/04 08:50:05;;;;;;;9.32;5.75;;;10.00;50.00;;;;;;4997438;28;20037;-79
2023/04/04 08:52:36;;;;;;;10.20;5.95;;;10.10;50.20;;;;;;5013207;28;20500;-81
2023/04/04 08:55:07;;;;;;;8.85;5.75;;;10.10;50.20;;;;;;4994191;28;20068;-81
2023/04/04 08:57:32;;;;;;;5.80;4.28;;;10.20;50.50;;;;;;5013518;28;20030;-75
2023/04/04 08:59:59;;;;;;;9.27;5.95;;;10.20;50.40;;;;;;5012667;28;20239;-76
2023/04/04 09:02:37;;;;;;;9.60;5.10;;;10.30;50.70;;;;;;5012893;28;20241;-76
2023/04/04 09:05:05;;;;;;;9.95;5.15;;;10.40;51.10;;;;;;5014805;28;20378;-76
2023/04/04 09:07:32;;;;;;;8.48;5.22;;;10.50;51.20;;;;;;5011240;28;20068;-76
2023/04/04 09:09:58;;;;;;;8.88;5.75;;;10.50;51.20;;;;;;5008888;28;20121;-75
2023/04/04 09:12:25;;;;;;;7.57;5.63;;;10.60;51.40;;;;;;5016100;28;20500;-75
2023/04/04 09:14:53;;;;;;;8.00;5.60;;;10.70;51.60;;;;;;4993879;28;20036;-75
2023/04/04 09:17:18;;;;;;;9.82;5.00;;;10.70;51.50;;;;;;5016159;28;20076;-77
2023/04/04 09:19:45;;;;;;;10.90;7.05;;;10.70;51.50;;;;;;4989888;28;20025;-77
2023/04/04 09:22:11;;;;;;;12.57;5.50;;;10.80;51.70;;;;;;5010473;28;20052;-79
2023/04/04 09:24:42;;;;;;;8.50;4.68;;;10.90;51.90;;;;;;5006428;28;20037;-79
2023/04/04 09:27:09;;;;;;;8.48;4.85;;;10.90;52.00;;;;;;5010564;28;20036;-78
2023/04/04 09:29:39;;;;;;;11.27;6.25;;;11.00;52.10;;;;;;5011068;28;20033;-77
2023/04/04 09:32:15;;;;;;;6.25;4.95;;;11.00;52.00;;;;;;5012697;28;20116;-77
2023/04/04 09:34:43;;;;;;;7.30;5.10;;;11.00;51.90;;;;;;4994577;28;20048;-79
2023/04/04 09:37:13;;;;;;;9.65;5.80;;;11.00;51.70;;;;;;4991473;28;20037;-79
2023/04/04 09:39:40;;;;;;;6.50;4.85;;;11.00;51.70;;;;;;4986932;28;20112;-78
2023/04/04 09:42:09;;;;;;;6.18;5.03;;;11.00;51.70;;;;;;5014716;28;20029;-80
2023/04/04 09:44:35;;;;;;;6.88;5.68;;;11.00;51.60;;;;;;4997629;28;20559;-79
2023/04/04 09:47:23;;;;;;;5.88;5.28;;;11.00;51.50;;;;;;5009182;28;20052;-80
2023/04/04 09:49:50;;;;;;;7.45;6.10;;;11.00;51.30;;;;;;5013965;28;20029;-78
2023/04/04 09:52:19;;;;;;;9.10;5.20;;;11.00;51.20;;;;;;5013309;28;20037;-79
2023/04/04 09:54:59;;;;;;;12.07;6.32;;;11.00;51.00;;;;;;5013386;28;20607;-78
2023/04/04 09:57:28;;;;;;;9.77;5.45;;;11.00;50.80;;;;;;5007751;28;20533;-77
2023/04/04 10:00:08;;;;;;;8.15;6.20;;;11.00;51.30;;;;;;5005855;28;20033;-77
2023/04/04 10:02:40;;;;;;;9.45;6.45;;;11.00;50.50;;;;;;5014645;28;20616;-77
2023/04/04 10:05:10;;;;;;;8.02;5.75;;;11.00;50.40;;;;;;5011455;28;20048;-78
2023/04/04 10:07:38;;;;;;;10.93;6.80;;;11.00;50.20;;;;;;4979305;28;20038;-76
2023/04/04 10:10:06;;;;;;;7.97;6.43;;;11.10;50.10;;;;;;4998066;28;20514;-78
2023/04/04 10:12:33;;;;;;;10.30;6.80;;;11.10;49.90;;;;;;5001363;28;20038;-78
2023/04/04 10:15:00;;;;;;;6.03;5.43;;;11.10;49.70;;;;;;5001043;28;20069;-78
2023/04/04 10:17:35;;;;;;;7.30;6.32;;;11.10;49.60;;;;;;5010850;28;20137;-79
2023/04/04 10:20:05;;;;;;;10.05;7.30;;;11.20;49.50;;;;;;4993379;28;20037;-77
2023/04/04 10:22:36;;;;;;;10.55;6.85;;;11.20;49.30;;;;;;5011448;28;20562;-79
2023/04/04 10:25:04;;;;;;;6.90;5.40;;;11.20;49.10;;;;;;5010120;28;20159;-76
2023/04/04 10:27:31;;;;;;;8.35;5.32;;;11.30;49.20;;;;;;5000837;28;20087;-77
2023/04/04 10:29:58;;;;;;;7.47;6.18;;;11.30;49.30;;;;;;5003108;28;20095;-77
2023/04/04 10:32:46;;;;;;;6.28;5.28;;;11.50;50.30;;;;;;5009234;28;20541;-78
2023/04/04 10:35:13;;;;;;;6.13;5.35;;;11.60;49.90;;;;;;4989684;28;20485;-78
2023/04/04 10:37:54;;;;;;;7.90;5.68;;;11.70;50.00;;;;;;5005474;28;20167;-76
2023/04/04 10:40:23;;;;;;;6.18;5.57;;;11.80;50.20;;;;;;5012959;28;20531;-76
2023/04/04 10:42:50;;;;;;;8.60;5.32;;;12.00;50.50;;;;;;5005514;28;20108;-76
2023/04/04 10:45:17;;;;;;;7.82;6.38;;;12.00;50.30;;;;;;4974622;28;20075;-76
2023/04/04 10:47:44;;;;;;;9.10;4.97;;;12.20;50.60;;;;;;5011137;28;20045;-75
2023/04/04 10:50:11;;;;;;;9.90;6.03;;;12.20;50.50;;;;;;5015478;28;20095;-74
2023/04/04 10:52:41;;;;;;;8.25;5.55;;;12.40;51.00;;;;;;5005416;28;20044;-74
2023/04/04 10:55:09;;;;;;;7.60;5.50;;;12.50;51.10;;;;;;5008086;28;20029;-75
2023/04/04 10:57:51;;;;;;;9.10;6.40;;;12.60;51.30;;;;;;4997461;28;20144;-75
2023/04/04 11:00:19;;;;;;;11.50;6.25;;;12.70;51.40;;;;;;5018834;28;20037;-75
2023/04/04 11:02:45;;;;;;;9.15;5.78;;;12.90;51.50;;;;;;5012331;28;20033;-74
2023/04/04 11:05:15;;;;;;;8.57;5.90;;;13.00;51.50;;;;;;5015115;28;20727;-75
2023/04/04 11:07:44;;;;;;;6.32;5.45;;;13.00;51.30;;;;;;5011486;28;20030;-79
2023/04/04 11:10:15;;;;;;;7.75;5.90;;;13.10;51.30;;;;;;4998470;28;20084;-76
2023/04/04 11:12:44;;;;;;;6.97;5.75;;;13.20;51.30;;;;;;5013745;28;20030;-78
2023/04/04 11:15:12;;;;;;;9.93;5.90;;;13.20;51.20;;;;;;5015545;28;20433;-76
2023/04/04 11:17:42;;;;;;;8.18;6.28;;;13.30;51.20;;;;;;5013247;28;20489;-76
2023/04/04 11:20:09;;;;;;;9.77;6.22;;;13.30;51.10;;;;;;5013732;28;20048;-75
2023/04/04 11:22:35;;;;;;;6.47;5.50;;;13.40;51.20;;;;;;5018467;28;20165;-77
2023/04/04 11:25:26;;;;;;;6.78;4.40;;;13.40;51.20;;;;;;4997728;28;20037;-79
2023/04/04 11:27:56;;;;;;;6.75;4.85;;;13.50;51.80;;;;;;4994627;28;20309;-80
2023/04/04 11:30:22;;;;;;;6.93;4.85;;;13.70;52.30;;;;;;5016932;28;20120;-79
2023/04/04 11:32:49;;;;;;;7.68;4.45;;;13.90;52.80;;;;;;5020760;28;20029;-79
2023/04/04 11:35:15;;;;;;;8.48;4.93;;;14.00;53.10;;;;;;5020800;28;20034;-75
2023/04/04 11:37:51;;;;;;;10.30;4.43;;;14.20;53.50;;;;;;5018690;28;20030;-76
2023/04/04 11:40:17;;;;;;;6.50;4.72;;;14.40;53.80;;;;;;5009410;28;20213;-75
2023/04/04 11:42:43;;;;;;;8.25;4.60;;;14.50;53.60;;;;;;5018877;28;20038;-77
2023/04/04 11:45:17;;;;;;;6.13;5.53;;;14.60;53.50;;;;;;5012427;28;20036;-75
2023/04/04 11:47:47;;;;;;;5.93;5.32;;;14.70;53.30;;;;;;5013601;28;20060;-76
2023/04/04 11:50:14;;;;;;;6.03;4.95;;;14.80;53.20;;;;;;5017994;28;20738;-75
2023/04/04 11:52:44;;;;;;;5.68;5.13;;;14.80;52.90;;;;;;5015295;28;20080;-75
2023/04/04 11:55:18;;;;;;;6.95;5.30;;;14.80;52.80;;;;;;5018417;28;20025;-76
2023/04/04 11:57:52;;;;;;;6.90;5.22;;;14.90;52.80;;;;;;5017007;28;20041;-76
2023/04/04 12:00:34;;;;;;;8.65;5.43;;;14.90;52.60;;;;;;5019408;28;20279;-75
2023/04/04 12:03:00;;;;;;;7.70;5.87;;;15.00;52.60;;;;;;4999728;28;20034;-76
2023/04/04 12:05:27;;;;;;;6.80;5.10;;;15.00;52.40;;;;;;5013132;28;20086;-76
2023/04/04 12:07:53;;;;;;;6.45;5.35;;;15.10;52.40;;;;;;5013553;28;20490;-76
2023/04/04 12:10:21;;;;;;;9.75;5.35;;;15.10;52.10;;;;;;5015536;28;20057;-75
2023/04/04 12:12:48;;;;;;;7.80;6.25;;;15.10;51.90;;;;;;4993131;28;20038;-76
2023/04/04 12:15:14;;;;;;;7.38;5.88;;;15.10;51.70;;;;;;5001219;28;20029;-77
2023/04/04 12:17:42;;;;;;;6.35;5.75;;;15.20;51.70;;;;;;5000895;28;20507;-75
2023/04/04 12:20:15;;;;;;;11.05;6.35;;;15.20;51.50;;;;;;5002093;28;20481;-75
2023/04/04 12:22:41;;;;;;;7.68;6.95;;;15.20;51.30;;;;;;5014933;28;20242;-75
2023/04/04 12:25:08;;;;;;;8.65;6.00;;;15.30;51.40;;;;;;5016500;28;20049;-77
2023/04/04 12:27:35;;;;;;;5.60;5.03;;;15.30;51.20;;;;;;5011221;28;20420;-75
2023/04/04 12:30:03;;;;;;;7.57;4.65;;;15.40;51.30;;;;;;5018977;28;20152;-76
2023/04/04 12:32:29;;;;;;;6.88;5.25;;;15.40;51.10;;;;;;5012029;28;20094;-76
2023/04/04 12:35:00;;;;;;;8.45;5.40;;;15.50;51.30;;;;;;5042310;28;20052;-75
2023/04/04 12:37:28;;;;;;;7.65;5.50;;;15.60;51.30;;;;;;5022345;28;20013;-76
2023/04/04 12:39:55;;;;;;;5.22;4.72;;;15.70;51.30;;;;;;5040650;28;20049;-76
2023/04/04 12:42:22;;;;;;;5.88;4.97;;;15.70;51.10;;;;;;5032660;28;20087;-75
2023/04/04 12:44:52;;;;;;;6.22;4.72;;;15.80;51.00;;;;;;5018121;28;20653;-77
2023/04/04 12:47:22;;;;;;;7.15;5.10;;;16.00;51.00;;;;;;5023252;28;20041;-77
2023/04/04 12:49:51;;;;;;;5.20;4.70;;;16.10;51.00;;;;;;5020219;28;20489;-77
2023/04/04 12:52:19;;;;;;;7.30;4.63;;;16.20;51.60;;;;;;5008512;28;20029;-76
2023/04/04 12:54:45;;;;;;;6.47;4.30;;;16.30;50.90;;;;;;5009788;28;20022;-76
2023/04/04 12:57:17;;;;;;;6.47;4.53;;;16.40;50.80;;;;;;5010467;28;20428;-76
2023/04/04 12:59:48;;;;;;;6.80;4.53;;;16.50;50.80;;;;;;5029340;28;20033;-76